sensor_id;sensor_type;location;lat;lon;timestamp;P1;durP1;ratioP1;P2;durP2;ratioP2
23072;SDS011;67971;51.046;3.732;2023-04-20T00:00:01;7.77;;;4.00;;
23072;SDS011;67971;51.046;3.732;2023-04-20T00:02:33;9.03;;;4.00;;
23072;SDS011;67971;51.046;3.732;2023-04-20T00:04:59;6.00;;;4.33;;
23072;SDS011;67971;51.046;3.732;2023-04-20T00:07:25;5.87;;;4.27;;
23072;SDS011;67971;51.046;3.732;2023-04-20T00:09:51;9.00;;;4.43;;
23072;SDS011;67971;51.046;3.732;2023-04-20T00:12:17;7.70;;;3.70;;
23072;SDS011;67971;51.046;3.732;2023-04-20T00:14:42;12.50;;;4.50;;
23072;SDS011;67971;51.046;3.732;2023-04-20T00:17:08;7.83;;;3.80;;
23072;SDS011;67971;51.046;3.732;2023-04-20T00:19:33;10.10;;;4.43;;
23072;SDS011;67971;51.046;3.732;2023-04-20T00:21:59;9.13;;;4.17;;
23072;SDS011;67971;51.046;3.732;2023-04-20T00:24:25;5.07;;;4.37;;
23072;SDS011;67971;51.046;3.732;2023-04-20T00:26:51;9.17;;;4.17;;
23072;SDS011;67971;51.046;3.732;2023-04-20T00:29:16;9.90;;;4.40;;
23072;SDS011;67971;51.046;3.732;2023-04-20T00:31:42;8.00;;;3.93;;
23072;SDS011;67971;51.046;3.732;2023-04-20T00:34:08;7.50;;;4.57;;
23072;SDS011;67971;51.046;3.732;2023-04-20T00:36:33;5.90;;;3.97;;
23072;SDS011;67971;51.046;3.732;2023-04-20T00:38:59;15.63;;;4.80;;
23072;SDS011;67971;51.046;3.732;2023-04-20T00:41:25;7.63;;;4.50;;
23072;SDS011;67971;51.046;3.732;2023-04-20T00:43:51;6.57;;;3.63;;
23072;SDS011;67971;51.046;3.732;2023-04-20T00:46:18;10.13;;;4.33;;
23072;SDS011;67971;51.046;3.732;2023-04-20T00:48:45;13.37;;;6.13;;
23072;SDS011;67971;51.046;3.732;2023-04-20T00:51:11;7.57;;;4.17;;
23072;SDS011;67971;51.046;3.732;2023-04-20T00:53:37;9.60;;;5.23;;
23072;SDS011;67971;51.046;3.732;2023-04-20T00:56:04;9.00;;;4.20;;
23072;SDS011;67971;51.046;3.732;2023-04-20T00:58:31;5.93;;;4.13;;
23072;SDS011;67971;51.046;3.732;2023-04-20T01:00:57;8.33;;;5.17;;
23072;SDS011;67971;51.046;3.732;2023-04-20T01:03:23;7.00;;;4.07;;
23072;SDS011;67971;51.046;3.732;2023-04-20T01:05:49;11.80;;;4.67;;
23072;SDS011;67971;51.046;3.732;2023-04-20T01:08:15;7.27;;;4.20;;
23072;SDS011;67971;51.046;3.732;2023-04-20T01:10:41;12.00;;;4.27;;
23072;SDS011;67971;51.046;3.732;2023-04-20T01:13:07;8.50;;;4.10;;
23072;SDS011;67971;51.046;3.732;2023-04-20T01:15:32;6.87;;;4.30;;
23072;SDS011;67971;51.046;3.732;2023-04-20T01:17:59;8.13;;;4.10;;
23072;SDS011;67971;51.046;3.732;2023-04-20T01:20:25;9.77;;;4.83;;
23072;SDS011;67971;51.046;3.732;2023-04-20T01:22:51;7.43;;;4.20;;
23072;SDS011;67971;51.046;3.732;2023-04-20T01:25:20;9.60;;;4.27;;
23072;SDS011;67971;51.046;3.732;2023-04-20T01:27:47;8.00;;;4.33;;
23072;SDS011;67971;51.046;3.732;2023-04-20T01:30:13;7.97;;;4.20;;
23072;SDS011;67971;51.046;3.732;2023-04-20T01:32:39;8.50;;;4.27;;
23072;SDS011;67971;51.046;3.732;2023-04-20T01:35:05;6.77;;;4.33;;
23072;SDS011;67971;51.046;3.732;2023-04-20T01:37:32;8.37;;;3.93;;
23072;SDS011;67971;51.046;3.732;2023-04-20T01:39:57;6.73;;;4.03;;
23072;SDS011;67971;51.046;3.732;2023-04-20T01:42:23;7.20;;;3.93;;
23072;SDS011;67971;51.046;3.732;2023-04-20T01:44:49;20.33;;;5.37;;
23072;SDS011;67971;51.046;3.732;2023-04-20T01:47:15;10.33;;;4.13;;
23072;SDS011;67971;51.046;3.732;2023-04-20T01:49:40;11.67;;;3.73;;
23072;SDS011;67971;51.046;3.732;2023-04-20T01:52:07;8.30;;;4.53;;
23072;SDS011;67971;51.046;3.732;2023-04-20T01:54:33;8.03;;;4.10;;
23072;SDS011;67971;51.046;3.732;2023-04-20T01:56:59;13.17;;;4.07;;
23072;SDS011;67971;51.046;3.732;2023-04-20T01:59:26;5.60;;;3.77;;
23072;SDS011;67971;51.046;3.732;2023-04-20T02:01:52;10.27;;;4.67;;
23072;SDS011;67971;51.046;3.732;2023-04-20T02:04:17;5.83;;;4.03;;
23072;SDS011;67971;51.046;3.732;2023-04-20T02:06:44;11.73;;;4.60;;
23072;SDS011;67971;51.046;3.732;2023-04-20T02:09:10;6.87;;;4.10;;
23072;SDS011;67971;51.046;3.732;2023-04-20T02:11:35;12.80;;;4.57;;
23072;SDS011;67971;51.046;3.732;2023-04-20T02:14:01;12.93;;;4.00;;
23072;SDS011;67971;51.046;3.732;2023-04-20T02:16:27;6.47;;;3.63;;
23072;SDS011;67971;51.046;3.732;2023-04-20T02:18:54;6.60;;;3.90;;
23072;SDS011;67971;51.046;3.732;2023-04-20T02:21:20;8.80;;;4.27;;
23072;SDS011;67971;51.046;3.732;2023-04-20T02:23:46;8.53;;;3.87;;
23072;SDS011;67971;51.046;3.732;2023-04-20T02:26:12;5.50;;;3.80;;
23072;SDS011;67971;51.046;3.732;2023-04-20T02:28:38;7.07;;;3.73;;
23072;SDS011;67971;51.046;3.732;2023-04-20T02:31:03;12.57;;;4.30;;
23072;SDS011;67971;51.046;3.732;2023-04-20T02:33:29;7.97;;;3.73;;
23072;SDS011;67971;51.046;3.732;2023-04-20T02:35:55;6.00;;;3.83;;
23072;SDS011;67971;51.046;3.732;2023-04-20T02:38:21;10.57;;;4.33;;
23072;SDS011;67971;51.046;3.732;2023-04-20T02:40:46;4.27;;;3.57;;
23072;SDS011;67971;51.046;3.732;2023-04-20T02:43:12;8.63;;;3.90;;
23072;SDS011;67971;51.046;3.732;2023-04-20T02:45:38;5.57;;;3.67;;
23072;SDS011;67971;51.046;3.732;2023-04-20T02:48:03;8.50;;;4.00;;
23072;SDS011;67971;51.046;3.732;2023-04-20T02:50:29;11.43;;;4.00;;
23072;SDS011;67971;51.046;3.732;2023-04-20T02:52:55;14.37;;;4.47;;
23072;SDS011;67971;51.046;3.732;2023-04-20T02:55:21;7.90;;;3.97;;
23072;SDS011;67971;51.046;3.732;2023-04-20T02:57:47;8.20;;;3.43;;
23072;SDS011;67971;51.046;3.732;2023-04-20T03:00:12;5.40;;;3.63;;
23072;SDS011;67971;51.046;3.732;2023-04-20T03:02:38;7.40;;;3.93;;
23072;SDS011;67971;51.046;3.732;2023-04-20T03:05:04;8.30;;;4.10;;
23072;SDS011;67971;51.046;3.732;2023-04-20T03:07:30;5.63;;;3.13;;
23072;SDS011;67971;51.046;3.732;2023-04-20T03:09:56;11.80;;;4.20;;
23072;SDS011;67971;51.046;3.732;2023-04-20T03:12:21;5.93;;;3.47;;
23072;SDS011;67971;51.046;3.732;2023-04-20T03:14:47;6.10;;;4.20;;
23072;SDS011;67971;51.046;3.732;2023-04-20T03:17:13;9.00;;;3.73;;
23072;SDS011;67971;51.046;3.732;2023-04-20T03:19:38;7.93;;;4.07;;
23072;SDS011;67971;51.046;3.732;2023-04-20T03:22:05;7.80;;;4.10;;
23072;SDS011;67971;51.046;3.732;2023-04-20T03:24:31;7.37;;;3.70;;
23072;SDS011;67971;51.046;3.732;2023-04-20T03:26:56;5.07;;;4.00;;
23072;SDS011;67971;51.046;3.732;2023-04-20T03:29:22;6.07;;;3.80;;
23072;SDS011;67971;51.046;3.732;2023-04-20T03:31:48;7.93;;;4.10;;
23072;SDS011;67971;51.046;3.732;2023-04-20T03:34:13;6.37;;;3.87;;
23072;SDS011;67971;51.046;3.732;2023-04-20T03:36:39;10.17;;;4.23;;
23072;SDS011;67971;51.046;3.732;2023-04-20T03:39:05;8.57;;;4.13;;
23072;SDS011;67971;51.046;3.732;2023-04-20T03:41:30;6.80;;;3.73;;
23072;SDS011;67971;51.046;3.732;2023-04-20T03:43:56;4.97;;;3.63;;
23072;SDS011;67971;51.046;3.732;2023-04-20T03:46:22;6.70;;;4.03;;
23072;SDS011;67971;51.046;3.732;2023-04-20T03:48:47;6.77;;;3.83;;
23072;SDS011;67971;51.046;3.732;2023-04-20T03:51:13;10.67;;;4.07;;
23072;SDS011;67971;51.046;3.732;2023-04-20T03:53:39;7.00;;;4.20;;
23072;SDS011;67971;51.046;3.732;2023-04-20T03:56:05;4.73;;;3.63;;
23072;SDS011;67971;51.046;3.732;2023-04-20T03:58:31;6.83;;;3.53;;
23072;SDS011;67971;51.046;3.732;2023-04-20T04:01:03;6.30;;;4.10;;
23072;SDS011;67971;51.046;3.732;2023-04-20T04:03:33;10.70;;;4.10;;
23072;SDS011;67971;51.046;3.732;2023-04-20T04:05:59;7.67;;;3.73;;
23072;SDS011;67971;51.046;3.732;2023-04-20T04:08:25;7.03;;;3.60;;
23072;SDS011;67971;51.046;3.732;2023-04-20T04:10:51;9.63;;;3.90;;
23072;SDS011;67971;51.046;3.732;2023-04-20T04:13:17;12.90;;;3.73;;
23072;SDS011;67971;51.046;3.732;2023-04-20T04:15:42;14.43;;;4.67;;
23072;SDS011;67971;51.046;3.732;2023-04-20T04:18:08;6.10;;;4.03;;
23072;SDS011;67971;51.046;3.732;2023-04-20T04:20:34;8.47;;;3.53;;
23072;SDS011;67971;51.046;3.732;2023-04-20T04:22:59;9.53;;;4.30;;
23072;SDS011;67971;51.046;3.732;2023-04-20T04:25:25;9.73;;;3.70;;
23072;SDS011;67971;51.046;3.732;2023-04-20T04:27:51;11.33;;;4.40;;
23072;SDS011;67971;51.046;3.732;2023-04-20T04:30:17;7.03;;;4.47;;
23072;SDS011;67971;51.046;3.732;2023-04-20T04:32:44;10.37;;;3.77;;
23072;SDS011;67971;51.046;3.732;2023-04-20T04:35:10;13.47;;;4.47;;
23072;SDS011;67971;51.046;3.732;2023-04-20T04:37:37;17.50;;;6.37;;
23072;SDS011;67971;51.046;3.732;2023-04-20T04:40:03;16.60;;;8.10;;
23072;SDS011;67971;51.046;3.732;2023-04-20T04:42:33;22.47;;;10.60;;
23072;SDS011;67971;51.046;3.732;2023-04-20T04:45:00;30.77;;;13.70;;
23072;SDS011;67971;51.046;3.732;2023-04-20T04:47:26;33.87;;;13.70;;
23072;SDS011;67971;51.046;3.732;2023-04-20T04:49:55;33.87;;;14.50;;
23072;SDS011;67971;51.046;3.732;2023-04-20T04:52:23;33.33;;;14.67;;
23072;SDS011;67971;51.046;3.732;2023-04-20T04:54:49;21.03;;;11.03;;
23072;SDS011;67971;51.046;3.732;2023-04-20T04:57:15;19.63;;;10.23;;
23072;SDS011;67971;51.046;3.732;2023-04-20T04:59:41;24.67;;;9.87;;
23072;SDS011;67971;51.046;3.732;2023-04-20T05:02:06;24.27;;;8.67;;
23072;SDS011;67971;51.046;3.732;2023-04-20T05:04:32;8.87;;;5.40;;
23072;SDS011;67971;51.046;3.732;2023-04-20T05:06:58;18.03;;;5.30;;
23072;SDS011;67971;51.046;3.732;2023-04-20T05:09:23;8.73;;;4.30;;
23072;SDS011;67971;51.046;3.732;2023-04-20T05:11:49;7.03;;;4.03;;
23072;SDS011;67971;51.046;3.732;2023-04-20T05:14:15;7.10;;;4.07;;
23072;SDS011;67971;51.046;3.732;2023-04-20T05:16:41;10.57;;;4.70;;
23072;SDS011;67971;51.046;3.732;2023-04-20T05:19:06;7.57;;;3.50;;
23072;SDS011;67971;51.046;3.732;2023-04-20T05:21:32;8.53;;;3.83;;
23072;SDS011;67971;51.046;3.732;2023-04-20T05:23:58;12.63;;;4.20;;
23072;SDS011;67971;51.046;3.732;2023-04-20T05:26:23;6.90;;;4.07;;
23072;SDS011;67971;51.046;3.732;2023-04-20T05:28:49;6.13;;;3.73;;
23072;SDS011;67971;51.046;3.732;2023-04-20T05:31:15;12.40;;;4.13;;
23072;SDS011;67971;51.046;3.732;2023-04-20T05:33:40;8.10;;;4.07;;
23072;SDS011;67971;51.046;3.732;2023-04-20T05:36:07;7.93;;;4.20;;
23072;SDS011;67971;51.046;3.732;2023-04-20T05:38:34;7.87;;;4.27;;
23072;SDS011;67971;51.046;3.732;2023-04-20T05:40:59;7.73;;;3.93;;
23072;SDS011;67971;51.046;3.732;2023-04-20T05:43:25;16.97;;;5.10;;
23072;SDS011;67971;51.046;3.732;2023-04-20T05:45:51;6.50;;;3.90;;
23072;SDS011;67971;51.046;3.732;2023-04-20T05:48:16;8.97;;;3.80;;
23072;SDS011;67971;51.046;3.732;2023-04-20T05:50:42;6.90;;;3.77;;
23072;SDS011;67971;51.046;3.732;2023-04-20T05:53:08;10.53;;;3.93;;
23072;SDS011;67971;51.046;3.732;2023-04-20T05:55:33;6.70;;;3.60;;
23072;SDS011;67971;51.046;3.732;2023-04-20T05:57:59;8.57;;;3.97;;
23072;SDS011;67971;51.046;3.732;2023-04-20T06:00:25;12.97;;;3.97;;
23072;SDS011;67971;51.046;3.732;2023-04-20T06:02:51;9.50;;;4.27;;
23072;SDS011;67971;51.046;3.732;2023-04-20T06:05:18;11.47;;;4.27;;
23072;SDS011;67971;51.046;3.732;2023-04-20T06:07:45;7.70;;;4.00;;
23072;SDS011;67971;51.046;3.732;2023-04-20T06:10:11;9.73;;;4.63;;
23072;SDS011;67971;51.046;3.732;2023-04-20T06:12:37;10.00;;;4.20;;
23072;SDS011;67971;51.046;3.732;2023-04-20T06:15:02;17.97;;;4.97;;
23072;SDS011;67971;51.046;3.732;2023-04-20T06:17:33;9.53;;;4.73;;
23072;SDS011;67971;51.046;3.732;2023-04-20T06:20:00;6.50;;;3.73;;
23072;SDS011;67971;51.046;3.732;2023-04-20T06:22:26;15.60;;;4.20;;
23072;SDS011;67971;51.046;3.732;2023-04-20T06:24:51;8.23;;;4.00;;
23072;SDS011;67971;51.046;3.732;2023-04-20T06:27:17;9.03;;;4.07;;
23072;SDS011;67971;51.046;3.732;2023-04-20T06:29:44;12.77;;;4.80;;
23072;SDS011;67971;51.046;3.732;2023-04-20T06:32:10;7.27;;;4.47;;
23072;SDS011;67971;51.046;3.732;2023-04-20T06:34:36;7.77;;;3.83;;
23072;SDS011;67971;51.046;3.732;2023-04-20T06:37:01;5.27;;;3.90;;
23072;SDS011;67971;51.046;3.732;2023-04-20T06:39:29;6.13;;;4.53;;
23072;SDS011;67971;51.046;3.732;2023-04-20T06:41:56;9.63;;;3.70;;
23072;SDS011;67971;51.046;3.732;2023-04-20T06:44:23;6.33;;;3.90;;
23072;SDS011;67971;51.046;3.732;2023-04-20T06:46:49;11.33;;;4.40;;
23072;SDS011;67971;51.046;3.732;2023-04-20T06:49:15;10.77;;;4.47;;
23072;SDS011;67971;51.046;3.732;2023-04-20T06:51:40;11.53;;;4.63;;
23072;SDS011;67971;51.046;3.732;2023-04-20T06:54:06;11.87;;;5.37;;
23072;SDS011;67971;51.046;3.732;2023-04-20T06:56:32;12.33;;;6.50;;
23072;SDS011;67971;51.046;3.732;2023-04-20T06:58:57;11.17;;;6.00;;
23072;SDS011;67971;51.046;3.732;2023-04-20T07:01:23;20.07;;;9.03;;
23072;SDS011;67971;51.046;3.732;2023-04-20T07:03:49;18.90;;;8.40;;
23072;SDS011;67971;51.046;3.732;2023-04-20T07:06:15;16.50;;;8.00;;
23072;SDS011;67971;51.046;3.732;2023-04-20T07:08:41;13.00;;;7.33;;
23072;SDS011;67971;51.046;3.732;2023-04-20T07:11:07;18.97;;;8.43;;
23072;SDS011;67971;51.046;3.732;2023-04-20T07:13:32;16.80;;;8.13;;
23072;SDS011;67971;51.046;3.732;2023-04-20T07:15:58;22.93;;;8.87;;
23072;SDS011;67971;51.046;3.732;2023-04-20T07:18:24;23.83;;;9.70;;
23072;SDS011;67971;51.046;3.732;2023-04-20T07:20:50;28.83;;;13.63;;
23072;SDS011;67971;51.046;3.732;2023-04-20T07:23:16;26.83;;;13.70;;
23072;SDS011;67971;51.046;3.732;2023-04-20T07:25:42;30.77;;;14.17;;
23072;SDS011;67971;51.046;3.732;2023-04-20T07:28:07;19.90;;;10.60;;
23072;SDS011;67971;51.046;3.732;2023-04-20T07:30:33;19.60;;;10.03;;
23072;SDS011;67971;51.046;3.732;2023-04-20T07:32:59;13.30;;;7.00;;
23072;SDS011;67971;51.046;3.732;2023-04-20T07:35:24;14.17;;;6.37;;
23072;SDS011;67971;51.046;3.732;2023-04-20T07:37:50;12.83;;;4.33;;
23072;SDS011;67971;51.046;3.732;2023-04-20T07:40:16;11.33;;;3.83;;
23072;SDS011;67971;51.046;3.732;2023-04-20T07:42:42;13.53;;;4.03;;
23072;SDS011;67971;51.046;3.732;2023-04-20T07:45:08;10.50;;;3.87;;
23072;SDS011;67971;51.046;3.732;2023-04-20T07:47:35;6.07;;;3.43;;
23072;SDS011;67971;51.046;3.732;2023-04-20T07:50:02;7.87;;;3.63;;
23072;SDS011;67971;51.046;3.732;2023-04-20T07:52:28;10.60;;;4.50;;
23072;SDS011;67971;51.046;3.732;2023-04-20T07:54:54;12.87;;;4.43;;
23072;SDS011;67971;51.046;3.732;2023-04-20T07:57:22;13.43;;;4.00;;
23072;SDS011;67971;51.046;3.732;2023-04-20T07:59:48;7.63;;;4.63;;
23072;SDS011;67971;51.046;3.732;2023-04-20T08:02:14;8.33;;;4.03;;
23072;SDS011;67971;51.046;3.732;2023-04-20T08:04:40;7.13;;;4.00;;
23072;SDS011;67971;51.046;3.732;2023-04-20T08:07:08;9.03;;;4.63;;
23072;SDS011;67971;51.046;3.732;2023-04-20T08:09:34;11.40;;;4.30;;
23072;SDS011;67971;51.046;3.732;2023-04-20T08:12:00;6.33;;;3.73;;
23072;SDS011;67971;51.046;3.732;2023-04-20T08:14:26;9.43;;;4.23;;
23072;SDS011;67971;51.046;3.732;2023-04-20T08:16:51;8.63;;;4.30;;
23072;SDS011;67971;51.046;3.732;2023-04-20T08:19:17;10.93;;;4.43;;
23072;SDS011;67971;51.046;3.732;2023-04-20T08:21:43;6.60;;;4.13;;
23072;SDS011;67971;51.046;3.732;2023-04-20T08:24:08;12.23;;;5.33;;
23072;SDS011;67971;51.046;3.732;2023-04-20T08:26:35;8.27;;;5.17;;
23072;SDS011;67971;51.046;3.732;2023-04-20T08:29:01;7.03;;;3.90;;
23072;SDS011;67971;51.046;3.732;2023-04-20T08:31:28;8.10;;;4.10;;
23072;SDS011;67971;51.046;3.732;2023-04-20T08:33:54;8.90;;;4.70;;
23072;SDS011;67971;51.046;3.732;2023-04-20T08:36:20;8.23;;;4.77;;
23072;SDS011;67971;51.046;3.732;2023-04-20T08:38:52;8.43;;;5.07;;
23072;SDS011;67971;51.046;3.732;2023-04-20T08:41:19;8.67;;;4.63;;
23072;SDS011;67971;51.046;3.732;2023-04-20T08:43:45;10.57;;;4.33;;
23072;SDS011;67971;51.046;3.732;2023-04-20T08:46:12;8.23;;;4.57;;
23072;SDS011;67971;51.046;3.732;2023-04-20T08:48:38;7.27;;;4.60;;
23072;SDS011;67971;51.046;3.732;2023-04-20T08:51:09;7.47;;;4.50;;
23072;SDS011;67971;51.046;3.732;2023-04-20T08:53:35;7.43;;;4.30;;
23072;SDS011;67971;51.046;3.732;2023-04-20T08:56:00;10.80;;;4.87;;
23072;SDS011;67971;51.046;3.732;2023-04-20T08:58:30;8.27;;;4.80;;
23072;SDS011;67971;51.046;3.732;2023-04-20T09:00:56;10.83;;;4.90;;
23072;SDS011;67971;51.046;3.732;2023-04-20T09:03:57;9.70;;;4.50;;
23072;SDS011;67971;51.046;3.732;2023-04-20T09:06:17;10.07;;;4.73;;
23072;SDS011;67971;51.046;3.732;2023-04-20T09:08:43;6.53;;;4.30;;
23072;SDS011;67971;51.046;3.732;2023-04-20T09:11:20;6.47;;;4.40;;
23072;SDS011;67971;51.046;3.732;2023-04-20T09:14:02;17.10;;;5.03;;
23072;SDS011;67971;51.046;3.732;2023-04-20T09:16:49;11.23;;;4.80;;
23072;SDS011;67971;51.046;3.732;2023-04-20T09:19:22;9.40;;;5.07;;
23072;SDS011;67971;51.046;3.732;2023-04-20T09:21:50;8.93;;;5.20;;
23072;SDS011;67971;51.046;3.732;2023-04-20T09:24:19;5.50;;;4.80;;
23072;SDS011;67971;51.046;3.732;2023-04-20T09:26:45;8.80;;;5.20;;
23072;SDS011;67971;51.046;3.732;2023-04-20T09:29:21;7.27;;;4.77;;
23072;SDS011;67971;51.046;3.732;2023-04-20T09:31:48;10.13;;;5.07;;
23072;SDS011;67971;51.046;3.732;2023-04-20T09:34:14;9.30;;;5.27;;
23072;SDS011;67971;51.046;3.732;2023-04-20T09:36:41;7.53;;;5.10;;
23072;SDS011;67971;51.046;3.732;2023-04-20T09:41:40;9.03;;;5.20;;
23072;SDS011;67971;51.046;3.732;2023-04-20T09:44:07;10.57;;;5.13;;
23072;SDS011;67971;51.046;3.732;2023-04-20T09:46:35;11.27;;;5.43;;
23072;SDS011;67971;51.046;3.732;2023-04-20T09:49:03;9.70;;;5.90;;
23072;SDS011;67971;51.046;3.732;2023-04-20T09:51:31;10.07;;;5.07;;
23072;SDS011;67971;51.046;3.732;2023-04-20T09:53:59;7.30;;;5.03;;
23072;SDS011;67971;51.046;3.732;2023-04-20T09:56:27;11.80;;;6.07;;
23072;SDS011;67971;51.046;3.732;2023-04-20T09:58:53;12.53;;;5.80;;
23072;SDS011;67971;51.046;3.732;2023-04-20T10:01:20;16.17;;;5.33;;
23072;SDS011;67971;51.046;3.732;2023-04-20T10:03:47;8.67;;;5.50;;
23072;SDS011;67971;51.046;3.732;2023-04-20T10:06:20;8.27;;;5.47;;
23072;SDS011;67971;51.046;3.732;2023-04-20T10:08:46;10.27;;;5.13;;
23072;SDS011;67971;51.046;3.732;2023-04-20T10:11:26;8.00;;;5.87;;
23072;SDS011;67971;51.046;3.732;2023-04-20T10:13:53;16.13;;;8.60;;
23072;SDS011;67971;51.046;3.732;2023-04-20T10:16:20;11.13;;;5.97;;
23072;SDS011;67971;51.046;3.732;2023-04-20T10:18:56;9.57;;;6.00;;
23072;SDS011;67971;51.046;3.732;2023-04-20T10:21:27;7.50;;;5.43;;
23072;SDS011;67971;51.046;3.732;2023-04-20T10:23:58;9.83;;;5.70;;
23072;SDS011;67971;51.046;3.732;2023-04-20T10:26:35;11.07;;;4.67;;
23072;SDS011;67971;51.046;3.732;2023-04-20T10:29:06;11.17;;;5.77;;
23072;SDS011;67971;51.046;3.732;2023-04-20T10:31:43;6.50;;;4.77;;
23072;SDS011;67971;51.046;3.732;2023-04-20T10:34:09;11.20;;;5.30;;
23072;SDS011;67971;51.046;3.732;2023-04-20T10:36:35;8.10;;;4.67;;
23072;SDS011;67971;51.046;3.732;2023-04-20T10:39:35;11.37;;;4.87;;
23072;SDS011;67971;51.046;3.732;2023-04-20T10:41:56;11.13;;;4.90;;
23072;SDS011;67971;51.046;3.732;2023-04-20T10:44:23;10.50;;;4.67;;
23072;SDS011;67971;51.046;3.732;2023-04-20T10:46:49;8.63;;;4.93;;
23072;SDS011;67971;51.046;3.732;2023-04-20T10:49:16;12.40;;;4.83;;
23072;SDS011;67971;51.046;3.732;2023-04-20T10:51:45;14.07;;;5.67;;
23072;SDS011;67971;51.046;3.732;2023-04-20T10:54:15;12.43;;;5.07;;
23072;SDS011;67971;51.046;3.732;2023-04-20T10:56:44;8.67;;;6.03;;
23072;SDS011;67971;51.046;3.732;2023-04-20T10:59:14;8.10;;;4.97;;
23072;SDS011;67971;51.046;3.732;2023-04-20T11:01:42;7.47;;;5.47;;
23072;SDS011;67971;51.046;3.732;2023-04-20T11:04:09;7.80;;;5.20;;
23072;SDS011;67971;51.046;3.732;2023-04-20T11:06:38;8.87;;;5.20;;
23072;SDS011;67971;51.046;3.732;2023-04-20T11:09:15;9.23;;;5.33;;
23072;SDS011;67971;51.046;3.732;2023-04-20T11:11:45;13.33;;;6.20;;
23072;SDS011;67971;51.046;3.732;2023-04-20T11:14:22;10.77;;;6.17;;
23072;SDS011;67971;51.046;3.732;2023-04-20T11:16:51;9.63;;;5.87;;
23072;SDS011;67971;51.046;3.732;2023-04-20T11:19:30;10.70;;;6.23;;
23072;SDS011;67971;51.046;3.732;2023-04-20T11:21:57;11.17;;;5.90;;
23072;SDS011;67971;51.046;3.732;2023-04-20T11:24:24;9.43;;;5.57;;
23072;SDS011;67971;51.046;3.732;2023-04-20T11:26:52;9.40;;;5.63;;
23072;SDS011;67971;51.046;3.732;2023-04-20T11:31:58;11.10;;;6.07;;
23072;SDS011;67971;51.046;3.732;2023-04-20T11:34:25;14.30;;;6.13;;
23072;SDS011;67971;51.046;3.732;2023-04-20T11:36:51;11.00;;;5.80;;
23072;SDS011;67971;51.046;3.732;2023-04-20T11:39:25;12.80;;;6.70;;
23072;SDS011;67971;51.046;3.732;2023-04-20T11:41:51;12.67;;;6.07;;
23072;SDS011;67971;51.046;3.732;2023-04-20T11:44:21;7.67;;;6.17;;
23072;SDS011;67971;51.046;3.732;2023-04-20T11:46:47;10.17;;;6.40;;
23072;SDS011;67971;51.046;3.732;2023-04-20T11:49:17;10.80;;;7.70;;
23072;SDS011;67971;51.046;3.732;2023-04-20T11:51:43;18.93;;;6.70;;
23072;SDS011;67971;51.046;3.732;2023-04-20T11:54:10;12.80;;;5.93;;
23072;SDS011;67971;51.046;3.732;2023-04-20T11:56:37;11.93;;;6.77;;
23072;SDS011;67971;51.046;3.732;2023-04-20T11:59:02;8.40;;;5.80;;
23072;SDS011;67971;51.046;3.732;2023-04-20T12:01:29;8.60;;;6.33;;
23072;SDS011;67971;51.046;3.732;2023-04-20T12:03:54;12.77;;;6.73;;
23072;SDS011;67971;51.046;3.732;2023-04-20T12:06:20;12.63;;;6.57;;
23072;SDS011;67971;51.046;3.732;2023-04-20T12:08:46;9.07;;;6.30;;
23072;SDS011;67971;51.046;3.732;2023-04-20T12:11:12;12.13;;;6.10;;
23072;SDS011;67971;51.046;3.732;2023-04-20T12:13:40;14.27;;;6.77;;
23072;SDS011;67971;51.046;3.732;2023-04-20T12:16:07;9.10;;;5.87;;
23072;SDS011;67971;51.046;3.732;2023-04-20T12:18:32;6.83;;;5.97;;
23072;SDS011;67971;51.046;3.732;2023-04-20T12:20:58;9.57;;;5.83;;
23072;SDS011;67971;51.046;3.732;2023-04-20T12:23:24;13.23;;;6.30;;
23072;SDS011;67971;51.046;3.732;2023-04-20T12:25:51;11.60;;;6.90;;
23072;SDS011;67971;51.046;3.732;2023-04-20T12:28:16;11.27;;;6.80;;
23072;SDS011;67971;51.046;3.732;2023-04-20T12:30:43;10.57;;;6.97;;
23072;SDS011;67971;51.046;3.732;2023-04-20T12:33:08;11.80;;;7.10;;
23072;SDS011;67971;51.046;3.732;2023-04-20T12:35:34;9.27;;;6.60;;
23072;SDS011;67971;51.046;3.732;2023-04-20T12:38:00;10.90;;;6.83;;
23072;SDS011;67971;51.046;3.732;2023-04-20T12:40:26;13.00;;;6.90;;
23072;SDS011;67971;51.046;3.732;2023-04-20T12:42:51;9.63;;;6.83;;
23072;SDS011;67971;51.046;3.732;2023-04-20T12:45:17;14.07;;;7.57;;
23072;SDS011;67971;51.046;3.732;2023-04-20T12:47:43;11.17;;;7.13;;
23072;SDS011;67971;51.046;3.732;2023-04-20T12:50:09;11.13;;;6.63;;
23072;SDS011;67971;51.046;3.732;2023-04-20T12:52:35;18.63;;;7.37;;
23072;SDS011;67971;51.046;3.732;2023-04-20T12:55:01;10.50;;;7.30;;
23072;SDS011;67971;51.046;3.732;2023-04-20T12:57:27;11.23;;;7.83;;
23072;SDS011;67971;51.046;3.732;2023-04-20T12:59:53;12.07;;;7.70;;
23072;SDS011;67971;51.046;3.732;2023-04-20T13:02:20;16.20;;;7.60;;
23072;SDS011;67971;51.046;3.732;2023-04-20T13:04:46;14.40;;;7.83;;
23072;SDS011;67971;51.046;3.732;2023-04-20T13:07:11;16.43;;;8.50;;
23072;SDS011;67971;51.046;3.732;2023-04-20T13:09:37;9.20;;;7.20;;
23072;SDS011;67971;51.046;3.732;2023-04-20T13:12:03;9.10;;;7.83;;
23072;SDS011;67971;51.046;3.732;2023-04-20T13:14:29;10.60;;;8.00;;
23072;SDS011;67971;51.046;3.732;2023-04-20T13:16:56;11.73;;;7.60;;
23072;SDS011;67971;51.046;3.732;2023-04-20T13:19:25;14.57;;;8.40;;
23072;SDS011;67971;51.046;3.732;2023-04-20T13:21:54;11.97;;;7.40;;
23072;SDS011;67971;51.046;3.732;2023-04-20T13:24:20;16.43;;;8.40;;
23072;SDS011;67971;51.046;3.732;2023-04-20T13:26:46;12.27;;;7.43;;
23072;SDS011;67971;51.046;3.732;2023-04-20T13:29:11;10.00;;;7.53;;
23072;SDS011;67971;51.046;3.732;2023-04-20T13:31:38;10.83;;;6.93;;
23072;SDS011;67971;51.046;3.732;2023-04-20T13:34:04;10.30;;;7.03;;
23072;SDS011;67971;51.046;3.732;2023-04-20T13:36:30;13.87;;;7.00;;
23072;SDS011;67971;51.046;3.732;2023-04-20T13:38:57;9.77;;;7.47;;
23072;SDS011;67971;51.046;3.732;2023-04-20T13:41:23;11.37;;;6.80;;
23072;SDS011;67971;51.046;3.732;2023-04-20T13:43:49;15.20;;;6.93;;
23072;SDS011;67971;51.046;3.732;2023-04-20T13:46:15;11.47;;;7.40;;
23072;SDS011;67971;51.046;3.732;2023-04-20T13:48:41;10.63;;;6.37;;
23072;SDS011;67971;51.046;3.732;2023-04-20T13:51:07;11.53;;;6.33;;
23072;SDS011;67971;51.046;3.732;2023-04-20T13:53:33;7.97;;;5.53;;
23072;SDS011;67971;51.046;3.732;2023-04-20T13:55:58;8.63;;;5.93;;
23072;SDS011;67971;51.046;3.732;2023-04-20T13:58:25;7.75;;;5.57;;
23072;SDS011;67971;51.046;3.732;2023-04-20T14:00:52;6.13;;;5.28;;
23072;SDS011;67971;51.046;3.732;2023-04-20T14:03:18;9.43;;;6.18;;
23072;SDS011;67971;51.046;3.732;2023-04-20T14:05:44;5.68;;;5.05;;
23072;SDS011;67971;51.046;3.732;2023-04-20T14:08:10;9.20;;;5.40;;
23072;SDS011;67971;51.046;3.732;2023-04-20T14:10:37;10.13;;;5.57;;
23072;SDS011;67971;51.046;3.732;2023-04-20T14:13:04;8.33;;;5.97;;
23072;SDS011;67971;51.046;3.732;2023-04-20T14:15:31;8.50;;;6.57;;
23072;SDS011;67971;51.046;3.732;2023-04-20T14:17:57;10.23;;;7.60;;
23072;SDS011;67971;51.046;3.732;2023-04-20T14:20:24;10.67;;;7.23;;
23072;SDS011;67971;51.046;3.732;2023-04-20T14:22:51;7.27;;;6.37;;
23072;SDS011;67971;51.046;3.732;2023-04-20T14:25:17;8.10;;;7.30;;
23072;SDS011;67971;51.046;3.732;2023-04-20T14:27:43;8.67;;;7.77;;
23072;SDS011;67971;51.046;3.732;2023-04-20T14:30:10;9.63;;;8.60;;
23072;SDS011;67971;51.046;3.732;2023-04-20T14:32:36;8.43;;;7.43;;
23072;SDS011;67971;51.046;3.732;2023-04-20T14:35:02;11.93;;;7.83;;
23072;SDS011;67971;51.046;3.732;2023-04-20T14:37:29;11.23;;;7.10;;
23072;SDS011;67971;51.046;3.732;2023-04-20T14:39:54;11.80;;;6.77;;
23072;SDS011;67971;51.046;3.732;2023-04-20T14:42:20;9.77;;;6.90;;